createdAt,value
2023-01-12T00:04:55.321Z,6.88
2023-01-12T00:09:56.924Z,7.06
2023-01-12T00:14:58.513Z,7.08
2023-01-12T00:20:00.147Z,7.15
2023-01-12T00:25:01.792Z,6.91
2023-01-12T00:30:03.477Z,6.89
2023-01-12T00:35:05.494Z,7.19
2023-01-12T00:40:09.855Z,7.11
2023-01-12T00:45:23.535Z,7.14
2023-01-12T00:50:25.203Z,7.28
2023-01-12T00:55:26.862Z,7.38
2023-01-12T01:00:28.436Z,7.21
2023-01-12T01:05:30.564Z,7.25
2023-01-12T01:10:32.156Z,7.19
2023-01-12T01:15:33.794Z,7.26
2023-01-12T01:20:36.709Z,7.11
2023-01-12T01:25:38.338Z,7.28
2023-01-12T01:30:39.971Z,7.23
2023-01-12T01:35:41.579Z,7.21
2023-01-12T01:40:43.655Z,7.28
2023-01-12T01:45:56.125Z,7.15
2023-01-12T01:51:04.541Z,7.20
2023-01-12T01:56:11.515Z,7.19
2023-01-12T02:01:13.156Z,7.09
2023-01-12T02:06:15.557Z,7.05
2023-01-12T02:11:36.266Z,6.96
2023-01-12T02:16:46.545Z,7.00
2023-01-12T02:21:54.118Z,6.94
2023-01-12T02:27:23.068Z,7.09
2023-01-12T02:32:40.116Z,6.96
2023-01-12T02:38:17.088Z,6.75
2023-01-12T02:43:27.803Z,6.78
2023-01-12T02:48:54.851Z,6.90
2023-01-12T02:54:02.862Z,6.83
2023-01-12T02:59:09.382Z,6.88
2023-01-12T03:04:11.691Z,6.95
2023-01-12T03:09:15.947Z,7.00
2023-01-12T03:14:18.113Z,6.98
2023-01-12T03:19:29.753Z,7.24
2023-01-12T03:24:40.219Z,7.25
2023-01-12T03:29:47.178Z,7.34
2023-01-12T03:34:49.248Z,7.40
2023-01-12T03:39:59.323Z,7.27
2023-01-12T03:45:36.484Z,7.33
2023-01-12T03:50:52.975Z,7.38
2023-01-12T03:55:59.561Z,7.32
2023-01-12T04:01:02.356Z,7.45
2023-01-12T04:06:04.304Z,7.54
2023-01-12T04:11:26.127Z,7.67
2023-01-12T04:16:27.844Z,7.72
2023-01-12T04:21:48.101Z,7.65
2023-01-12T04:26:49.713Z,7.64
2023-01-12T04:31:51.421Z,7.59
2023-01-12T04:36:53.147Z,7.58
2023-01-12T04:41:55.007Z,7.62
2023-01-12T04:46:56.698Z,7.51
2023-01-12T04:51:58.316Z,7.65
2023-01-12T04:56:59.922Z,7.67
2023-01-12T05:02:01.561Z,7.46
2023-01-12T05:07:03.405Z,7.77
2023-01-12T05:12:05.404Z,7.66
2023-01-12T05:17:07.037Z,7.78
2023-01-12T05:22:08.914Z,7.71
2023-01-12T05:27:10.563Z,7.78
2023-01-12T05:32:12.166Z,7.81
2023-01-12T05:37:13.817Z,7.78
2023-01-12T05:42:34.125Z,7.71
2023-01-12T05:47:35.731Z,7.83
2023-01-12T05:52:37.369Z,7.80
2023-01-12T05:57:38.967Z,7.89
2023-01-12T06:02:40.590Z,7.92
2023-01-12T06:07:42.976Z,8.01
2023-01-12T06:13:03.185Z,7.93
2023-01-12T06:18:04.958Z,7.93
2023-01-12T06:23:06.560Z,7.99
2023-01-12T06:28:08.182Z,7.98
2023-01-12T06:33:09.818Z,8.09
2023-01-12T06:38:11.414Z,8.10
2023-01-12T06:43:13.034Z,7.96
2023-01-12T06:48:14.654Z,7.93
2023-01-12T06:53:16.282Z,8.03
2023-01-12T06:58:18.205Z,7.98
2023-01-12T07:03:20.336Z,8.05
2023-01-12T07:08:21.973Z,8.00
2023-01-12T07:13:23.589Z,8.10
2023-01-12T07:18:25.232Z,8.33
2023-01-12T07:23:26.889Z,8.26
2023-01-12T07:28:28.595Z,8.39
2023-01-12T07:33:30.984Z,8.53
2023-01-12T07:38:32.679Z,8.69
2023-01-12T07:43:34.298Z,8.84
2023-01-12T07:48:35.953Z,8.88
2023-01-12T07:53:37.574Z,9.03
2023-01-12T07:58:39.197Z,8.96
2023-01-12T08:03:40.965Z,9.14
2023-01-12T08:08:42.893Z,9.14
2023-01-12T08:13:44.561Z,9.17
2023-01-12T08:18:58.102Z,9.22
2023-01-12T08:24:02.085Z,9.26
2023-01-12T08:29:12.828Z,9.30
2023-01-12T08:34:14.843Z,9.29
2023-01-12T08:39:16.476Z,9.35
2023-01-12T08:44:19.065Z,9.44
2023-01-12T08:49:24.393Z,9.48
2023-01-12T08:54:26.340Z,9.48
2023-01-12T08:59:27.945Z,9.64
2023-01-12T09:04:29.640Z,9.64
2023-01-12T09:09:31.237Z,9.65
2023-01-12T09:14:38.488Z,9.69
2023-01-12T09:19:40.247Z,9.73
2023-01-12T09:24:41.931Z,9.79
2023-01-12T09:29:43.634Z,9.78
2023-01-12T09:34:48.446Z,9.78
2023-01-12T09:39:50.088Z,9.83
2023-01-12T09:45:11.554Z,9.80
2023-01-12T09:50:34.304Z,9.79
2023-01-12T09:55:47.761Z,9.80
2023-01-12T10:00:55.207Z,9.80
2023-01-12T10:06:00.957Z,9.78
2023-01-12T10:11:12.253Z,9.82
2023-01-12T10:16:25.589Z,9.86
2023-01-12T10:21:29.769Z,9.82
2023-01-12T10:26:39.859Z,9.84
2023-01-12T10:31:41.559Z,9.87
2023-01-12T10:36:45.856Z,9.88
2023-01-12T10:42:07.491Z,9.89
2023-01-12T10:47:10.738Z,9.90
2023-01-12T10:52:37.943Z,9.92
2023-01-12T10:57:44.699Z,9.94
2023-01-12T11:02:46.531Z,9.84
2023-01-12T11:07:49.769Z,9.78
2023-01-12T11:13:24.472Z,9.78
2023-01-12T11:18:39.093Z,9.70
2023-01-12T11:23:55.015Z,9.74
2023-01-12T11:29:02.801Z,9.73
2023-01-12T11:34:17.087Z,9.62
2023-01-12T11:39:23.407Z,9.53
2023-01-12T11:44:31.125Z,9.46
2023-01-12T11:49:44.616Z,9.26
2023-01-12T11:54:46.289Z,9.13
2023-01-12T11:59:47.926Z,9.10
2023-01-12T12:05:07.089Z,9.10
2023-01-12T12:10:23.881Z,9.01
2023-01-12T12:15:41.852Z,9.00
2023-01-12T12:20:58.490Z,8.86
2023-01-12T12:26:08.431Z,8.73
2023-01-12T12:31:29.367Z,8.73
2023-01-12T12:37:08.415Z,8.58
2023-01-12T12:42:39.407Z,8.50
2023-01-12T12:48:06.187Z,8.48
2023-01-12T12:53:26.206Z,8.45
2023-01-12T12:58:44.585Z,8.44
2023-01-12T13:03:53.799Z,8.36
2023-01-12T13:09:00.713Z,8.38
2023-01-12T13:14:16.592Z,8.35
2023-01-12T13:19:43.614Z,8.35
2023-01-12T13:24:46.070Z,8.35
2023-01-12T13:29:47.998Z,8.32
2023-01-12T13:34:52.003Z,8.27
2023-01-12T13:40:18.399Z,8.48
2023-01-12T13:45:22.265Z,8.37
2023-01-12T13:50:26.202Z,8.40
2023-01-12T13:55:31.186Z,8.40
2023-01-12T14:00:33.808Z,8.36
2023-01-12T14:05:55.424Z,8.40
2023-01-12T14:11:31.174Z,8.43
2023-01-12T14:17:04.846Z,8.53
2023-01-12T14:22:18.547Z,8.36
2023-01-12T14:27:23.255Z,8.39
2023-01-12T14:32:25.624Z,8.48
2023-01-12T14:37:32.796Z,8.53
2023-01-12T14:42:52.823Z,8.48
2023-01-12T14:47:54.422Z,8.79
2023-01-12T14:52:56.029Z,8.78
2023-01-12T14:58:00.765Z,8.78
2023-01-12T15:03:13.657Z,8.82
2023-01-12T15:08:31.146Z,8.80
2023-01-12T15:13:37.883Z,8.94
2023-01-12T15:18:58.059Z,8.88
2023-01-12T15:24:18.403Z,8.75
2023-01-12T15:29:20.007Z,8.90
2023-01-12T15:34:21.672Z,8.91
2023-01-12T15:39:23.344Z,9.06
2023-01-12T15:44:25.103Z,9.03
2023-01-12T15:49:27.002Z,9.11
2023-01-12T15:54:28.684Z,8.98
2023-01-12T15:59:31.988Z,9.05
2023-01-12T16:04:42.827Z,9.01
2023-01-12T16:09:49.903Z,8.97
2023-01-12T16:14:52.028Z,9.06
2023-01-12T16:19:53.849Z,9.01
2023-01-12T16:24:56.948Z,9.07
2023-01-12T16:29:58.599Z,9.03
2023-01-12T16:35:00.265Z,8.91
2023-01-12T16:40:01.943Z,9.01
2023-01-12T16:45:03.858Z,9.07
2023-01-12T16:50:05.969Z,9.15
2023-01-12T16:55:07.867Z,9.21
2023-01-12T17:00:10.905Z,9.28
2023-01-12T17:05:12.902Z,9.24
2023-01-12T17:10:17.776Z,9.32
2023-01-12T17:15:19.484Z,9.38
2023-01-12T17:20:21.493Z,9.38
2023-01-12T17:25:23.295Z,9.38
2023-01-12T17:30:24.906Z,9.48
2023-01-12T17:35:26.766Z,9.51
2023-01-12T17:40:29.002Z,9.59
2023-01-12T17:45:30.675Z,9.49
2023-01-12T17:50:32.330Z,9.63
2023-01-12T17:55:36.901Z,9.70
2023-01-12T18:00:41.555Z,9.73
2023-01-12T18:05:47.052Z,9.75
2023-01-12T18:10:48.791Z,9.89
2023-01-12T18:15:50.466Z,9.91
2023-01-12T18:20:53.422Z,9.93
2023-01-12T18:25:55.060Z,9.95
2023-01-12T18:31:08.080Z,10.09
2023-01-12T18:36:16.091Z,9.97
2023-01-12T18:41:37.520Z,9.86
2023-01-12T18:47:00.208Z,9.97
2023-01-12T18:52:21.642Z,9.89
2023-01-12T18:57:26.706Z,9.91
2023-01-12T19:02:29.962Z,9.87
2023-01-12T19:07:34.843Z,9.95
2023-01-12T19:12:36.511Z,10.04
2023-01-12T19:17:41.792Z,10.04
2023-01-12T19:23:02.719Z,10.06
2023-01-12T19:28:23.384Z,10.05
2023-01-12T19:33:25.031Z,10.13
2023-01-12T19:38:26.643Z,10.24
2023-01-12T19:43:30.078Z,10.12
2023-01-12T19:48:32.668Z,10.15
2023-01-12T19:53:34.324Z,10.15
2023-01-12T19:58:36.288Z,10.05
2023-01-12T20:03:40.105Z,10.27
2023-01-12T20:08:42.139Z,10.27
2023-01-12T20:13:43.891Z,10.20
2023-01-12T20:18:45.572Z,10.30
2023-01-12T20:23:47.179Z,10.23
2023-01-12T20:28:48.794Z,10.27
2023-01-12T20:33:50.403Z,10.35
2023-01-12T20:38:52.233Z,10.42
2023-01-12T20:43:53.862Z,10.46
2023-01-12T20:48:55.506Z,10.42
2023-01-12T20:53:58.831Z,10.54
2023-01-12T20:59:01.710Z,10.63
2023-01-12T21:04:03.463Z,10.44
2023-01-12T21:09:05.465Z,10.43
2023-01-12T21:14:07.083Z,10.54
2023-01-12T21:19:08.905Z,10.58
2023-01-12T21:24:10.728Z,10.60
2023-01-12T21:29:12.372Z,10.51
2023-01-12T21:34:14.015Z,10.57
2023-01-12T21:39:15.997Z,10.53
2023-01-12T21:44:17.613Z,10.54
2023-01-12T21:49:19.221Z,10.65
2023-01-12T21:54:20.924Z,10.67
2023-01-12T21:59:22.527Z,10.61
2023-01-12T22:04:24.188Z,10.99
2023-01-12T22:09:26.103Z,10.84
2023-01-12T22:14:27.707Z,10.95
2023-01-12T22:19:29.323Z,10.94
2023-01-12T22:24:30.977Z,10.84
2023-01-12T22:29:32.722Z,10.83
2023-01-12T22:34:34.371Z,10.83
2023-01-12T22:39:35.988Z,10.91
2023-01-12T22:44:37.633Z,10.80
2023-01-12T22:49:39.656Z,10.73
2023-01-12T22:54:41.308Z,10.74
2023-01-12T22:59:42.935Z,10.74
2023-01-12T23:04:44.652Z,10.76
2023-01-12T23:09:46.797Z,10.74
2023-01-12T23:14:48.527Z,10.76
2023-01-12T23:19:50.362Z,10.83
2023-01-12T23:24:52.109Z,10.66
2023-01-12T23:29:53.829Z,10.67
2023-01-12T23:34:55.538Z,10.82
2023-01-12T23:39:57.259Z,10.73
2023-01-12T23:44:59.031Z,10.78
2023-01-12T23:50:00.854Z,10.76
2023-01-12T23:55:02.602Z,10.85
